Time;durP1;ratioP1;P1;durP2;ratioP2;P2;SDS_P1;SDS_P2;PMS_P1;PMS_P2;Temp;Humidity;BMP_temperature;BMP_pressure;BME280_temperature;BME280_humidity;BME280_pressure;Samples;Min_cycle;Max_cycle;Signal;HPM_P1;HPM_P2
2022/12/25 00:00:40;;;;;;;11.85;5.65;;;;;;;9.58;85.84;98358.56;4948607;28;20040;-81
2022/12/25 00:03:06;;;;;;;9.13;5.45;;;;;;;9.57;85.95;98358.75;4950863;28;20491;-81
2022/12/25 00:05:32;;;;;;;13.73;6.07;;;;;;;9.52;86.31;98363.72;4946205;28;20039;-81
2022/12/25 00:07:58;;;;;;;10.98;5.53;;;;;;;9.56;86.31;98359.75;4946470;28;20035;-81
2022/12/25 00:10:23;;;;;;;10.07;4.93;;;;;;;9.47;86.42;98351.19;4946396;28;20039;-81
2022/12/25 00:12:49;;;;;;;11.07;5.45;;;;;;;9.48;86.75;98352.03;4948151;28;20708;-81
2022/12/25 00:15:15;;;;;;;11.88;6.00;;;;;;;9.46;86.67;98354.81;4947059;28;20479;-81
2022/12/25 00:17:41;;;;;;;11.25;5.07;;;;;;;9.44;86.95;98340.31;4948106;28;20054;-81
2022/12/25 00:20:07;;;;;;;10.73;5.20;;;;;;;9.48;86.75;98341.56;4948572;28;20475;-81
2022/12/25 00:22:33;;;;;;;10.88;5.07;;;;;;;9.48;86.94;98344.19;4947996;28;20055;-81
2022/12/25 00:24:58;;;;;;;8.45;4.85;;;;;;;9.52;87.02;98348.03;4946765;28;20766;-81
2022/12/25 00:27:24;;;;;;;9.10;5.05;;;;;;;9.52;86.81;98350.63;4952485;28;20039;-81
2022/12/25 00:29:49;;;;;;;9.98;5.60;;;;;;;9.54;86.58;98346.03;4949272;28;20109;-81
2022/12/25 00:32:15;;;;;;;13.52;5.45;;;;;;;9.49;86.59;98343.16;4949466;28;20038;-81
2022/12/25 00:34:40;;;;;;;11.10;5.00;;;;;;;9.52;86.50;98348.03;4958493;28;20122;-81
2022/12/25 00:37:06;;;;;;;10.77;5.20;;;;;;;9.52;86.54;98353.25;4965064;28;20090;-81
2022/12/25 00:39:31;;;;;;;13.65;5.63;;;;;;;9.55;86.61;98342.44;4963905;28;20427;-81
2022/12/25 00:44:41;;;;;;;9.80;5.10;;;;;;;9.56;86.32;98347.47;4963557;28;20054;-81
2022/12/25 00:47:06;;;;;;;8.38;5.00;;;;;;;9.58;86.38;98352.50;4962089;28;20039;-81
2022/12/25 00:49:32;;;;;;;12.43;5.93;;;;;;;9.61;86.28;98341.69;4964315;28;20054;-81
2022/12/25 00:51:57;;;;;;;11.35;4.63;;;;;;;9.59;86.25;98341.84;4964775;28;20461;-81
2022/12/25 00:54:23;;;;;;;9.40;4.82;;;;;;;9.59;86.04;98347.09;4962048;28;20031;-81
2022/12/25 00:56:48;;;;;;;9.10;5.10;;;;;;;9.57;86.02;98350.91;4964141;28;20034;-81
2022/12/25 00:59:14;;;;;;;11.57;5.30;;;;;;;9.55;86.15;98358.94;4963863;28;20065;-81
2022/12/25 01:01:40;;;;;;;12.05;5.05;;;;;;;9.58;86.49;98355.13;4962881;28;20390;-82
2022/12/25 01:04:06;;;;;;;9.57;4.60;;;;;;;9.54;86.50;98356.53;4963775;28;20039;-81
2022/12/25 01:06:32;;;;;;;11.20;5.10;;;;;;;9.53;86.93;98360.09;4964202;28;20057;-81
2022/12/25 01:11:42;;;;;;;7.50;4.63;;;;;;;9.42;87.66;98356.19;4963810;28;20105;-81
2022/12/25 01:14:08;;;;;;;9.05;4.78;;;;;;;9.42;87.64;98364.06;4962270;28;20031;-81
2022/12/25 01:16:34;;;;;;;13.50;5.18;;;;;;;9.42;87.74;98358.00;4963493;28;20039;-82
2022/12/25 01:18:59;;;;;;;9.48;5.45;;;;;;;9.42;87.71;98352.78;4964445;28;20043;-81
2022/12/25 01:21:25;;;;;;;7.90;5.07;;;;;;;9.37;87.66;98351.50;4963523;28;20534;-81
2022/12/25 01:23:52;;;;;;;9.65;4.65;;;;;;;9.26;87.91;98354.59;4963138;28;20093;-81
2022/12/25 01:26:21;;;;;;;9.77;4.95;;;;;;;9.27;88.18;98365.88;4963202;28;20037;-81
2022/12/25 01:28:48;;;;;;;12.93;5.18;;;;;;;9.30;88.56;98366.34;4963744;28;20037;-81
2022/12/25 01:31:17;;;;;;;9.82;5.57;;;;;;;9.31;88.28;98367.97;4962732;28;20070;-81
2022/12/25 01:33:44;;;;;;;7.55;5.00;;;;;;;9.28;88.36;98364.88;4962516;28;20047;-81
2022/12/25 01:36:30;;;;;;;9.30;4.70;;;;;;;9.29;88.73;98361.25;4960978;28;20030;-81
2022/12/25 01:38:55;;;;;;;8.23;5.60;;;;;;;9.31;88.24;98344.41;4964070;28;20058;-81
2022/12/25 01:41:24;;;;;;;13.30;4.95;;;;;;;9.27;88.27;98340.53;4962652;28;20486;-81
2022/12/25 01:44:12;;;;;;;10.18;5.15;;;;;;;9.31;88.28;98354.88;4963205;28;20039;-81
2022/12/25 01:46:38;;;;;;;8.38;5.18;;;;;;;9.30;87.99;98349.81;4959914;28;20424;-81
2022/12/25 01:49:11;;;;;;;7.25;4.68;;;;;;;9.22;88.11;98352.53;4961739;28;20065;-81
2022/12/25 01:51:44;;;;;;;11.73;5.80;;;;;;;9.25;88.04;98362.66;4963494;28;20038;-81
2022/12/25 01:54:26;;;;;;;9.32;5.20;;;;;;;9.23;87.89;98365.44;4961468;28;20023;-81
2022/12/25 01:56:56;;;;;;;10.60;5.45;;;;;;;9.22;87.59;98357.78;4963445;28;20043;-81
2022/12/25 01:59:25;;;;;;;7.77;5.20;;;;;;;9.18;87.62;98361.78;4963489;28;20039;-81
2022/12/25 02:01:51;;;;;;;8.45;5.28;;;;;;;9.13;87.75;98372.78;4963164;28;20035;-81
2022/12/25 02:04:39;;;;;;;9.30;5.00;;;;;;;9.10;87.78;98363.47;4962701;28;20032;-81
2022/12/25 02:07:19;;;;;;;9.90;5.65;;;;;;;9.03;88.17;98357.34;4962740;28;20030;-81
2022/12/25 02:09:45;;;;;;;10.20;5.18;;;;;;;9.01;88.29;98361.16;4962614;28;20510;-81
2022/12/25 02:12:24;;;;;;;8.68;5.40;;;;;;;8.98;88.75;98366.75;4945530;28;20129;-81
2022/12/25 02:14:54;;;;;;;10.20;5.05;;;;;;;8.92;89.23;98363.06;4963264;28;20067;-81
2022/12/25 02:17:37;;;;;;;7.05;4.75;;;;;;;8.86;89.39;98366.41;4963205;28;20031;-81
2022/12/25 02:20:35;;;;;;;11.05;5.20;;;;;;;8.89;89.61;98371.28;4961976;28;20035;-82
2022/12/25 02:23:22;;;;;;;8.10;5.03;;;;;;;8.86;89.72;98374.25;4962817;28;20072;-82
2022/12/25 02:26:32;;;;;;;9.52;4.60;;;;;;;8.84;90.07;98366.59;4962267;28;20386;-81
2022/12/25 02:29:06;;;;;;;9.93;4.55;;;;;;;8.83;89.80;98362.34;4963215;28;20061;-81
2022/12/25 02:31:43;;;;;;;8.43;4.15;;;;;;;8.82;89.43;98363.34;4962712;28;20183;-81
2022/12/25 02:34:18;;;;;;;6.22;4.30;;;;;;;8.82;89.87;98375.63;4961795;28;20043;-81
2022/12/25 02:37:00;;;;;;;7.65;4.50;;;;;;;8.81;89.94;98366.94;4962802;28;20039;-81
2022/12/25 02:39:59;;;;;;;;;;;;;;;8.83;89.54;98369.41;4964419;28;20048;-81
2022/12/25 03:08:46;;;;;;;7.97;4.70;;;;;;;8.69;90.01;98357.94;4965046;28;20045;-81
2022/12/25 03:11:30;;;;;;;7.00;4.28;;;;;;;8.67;90.24;98352.06;4965927;28;20035;-81
2022/12/25 03:16:57;;;;;;;5.50;3.78;;;;;;;8.71;90.28;98340.28;4966513;28;20035;-81
2022/12/25 03:28:02;;;;;;;6.25;3.70;;;;;;;8.73;89.35;98330.44;4964047;28;20039;-81
2022/12/25 03:31:12;;;;;;;5.95;4.15;;;;;;;8.71;89.18;98327.19;4964934;28;20039;-81
2022/12/25 04:36:28;;;;;;;5.07;3.75;;;;;;;7.97;90.47;98341.97;4965783;28;20042;-81
2022/12/25 04:38:54;;;;;;;5.25;3.47;;;;;;;7.98;90.32;98341.00;4964314;28;20499;-81
2022/12/25 04:41:19;;;;;;;6.93;3.58;;;;;;;7.98;90.24;98338.38;4963944;28;20066;-81
2022/12/25 04:43:45;;;;;;;5.32;3.35;;;;;;;7.98;90.30;98341.00;4964191;28;20043;-81
2022/12/25 04:46:10;;;;;;;6.63;3.17;;;;;;;7.95;90.47;98339.53;4961928;28;20043;-81
2022/12/25 04:48:36;;;;;;;4.85;3.67;;;;;;;7.91;90.59;98342.66;4960662;28;20085;-81
2022/12/25 04:51:19;;;;;;;5.90;3.20;;;;;;;7.99;90.54;98347.84;4947952;28;20109;-81
2022/12/25 04:53:46;;;;;;;5.38;3.28;;;;;;;8.01;90.41;98332.78;4963048;28;20042;-81
2022/12/25 04:56:13;;;;;;;3.20;2.90;;;;;;;8.04;90.23;98343.72;4964514;28;20035;-81
2022/12/25 04:58:39;;;;;;;6.60;2.97;;;;;;;8.05;89.96;98341.91;4963785;28;20062;-81
2022/12/25 05:01:05;;;;;;;5.43;3.03;;;;;;;8.07;89.34;98341.72;4963177;28;20045;-81
2022/12/25 05:03:31;;;;;;;5.85;3.30;;;;;;;8.05;89.46;98334.06;4963699;28;20073;-81
2022/12/25 05:05:58;;;;;;;4.53;3.28;;;;;;;8.07;89.36;98337.31;4964388;28;20039;-81
2022/12/25 05:08:24;;;;;;;5.93;3.40;;;;;;;8.02;89.03;98334.41;4964772;28;20046;-82
2022/12/25 05:10:50;;;;;;;6.70;3.55;;;;;;;7.94;88.86;98331.88;4963244;28;20031;-81
2022/12/25 05:13:16;;;;;;;7.90;3.38;;;;;;;7.84;89.05;98326.91;4963629;28;20059;-81
2022/12/25 05:15:42;;;;;;;6.03;3.80;;;;;;;7.71;89.80;98322.28;4962689;28;20069;-82
2022/12/25 05:18:07;;;;;;;4.22;3.00;;;;;;;7.63;90.40;98319.75;4964377;28;20077;-82
2022/12/25 05:20:33;;;;;;;4.13;3.05;;;;;;;7.63;90.73;98324.97;4964415;28;20040;-81
2022/12/25 05:22:59;;;;;;;4.85;3.17;;;;;;;7.59;90.47;98308.00;4964780;28;20050;-82
2022/12/25 05:25:24;;;;;;;6.82;3.05;;;;;;;7.55;90.36;98301.50;4964799;28;20038;-81
2022/12/25 05:27:50;;;;;;;4.82;3.55;;;;;;;7.43;91.31;98292.47;4962591;28;20070;-81
2022/12/25 05:30:15;;;;;;;6.97;3.03;;;;;;;7.38;91.14;98297.41;4962696;28;20039;-81
2022/12/25 05:32:41;;;;;;;4.13;2.88;;;;;;;7.37;90.89;98298.38;4963706;28;20376;-81
2022/12/25 05:35:07;;;;;;;7.50;3.13;;;;;;;7.35;90.69;98295.16;4963407;28;20046;-81
2022/12/25 05:37:34;;;;;;;6.05;3.22;;;;;;;7.28;90.73;98289.00;4964499;28;20035;-81
2022/12/25 05:40:00;;;;;;;6.50;3.53;;;;;;;7.24;90.82;98299.78;4963984;28;20471;-81
2022/12/25 05:42:26;;;;;;;6.07;3.40;;;;;;;7.18;91.23;98297.03;4964975;28;20054;-81
2022/12/25 05:44:51;;;;;;;3.80;3.03;;;;;;;7.18;91.35;98299.66;4960889;28;20483;-81
2022/12/25 05:47:17;;;;;;;5.50;3.60;;;;;;;7.16;90.94;98302.44;4964765;28;20030;-81
2022/12/25 05:49:42;;;;;;;5.20;3.22;;;;;;;7.11;91.00;98296.94;4962532;28;20035;-81
2022/12/25 05:52:08;;;;;;;6.20;3.38;;;;;;;7.10;91.20;98294.50;4963143;28;20094;-81
2022/12/25 05:54:34;;;;;;;5.03;3.30;;;;;;;7.16;91.77;98299.84;4962658;28;20043;-81
2022/12/25 05:57:00;;;;;;;6.95;3.30;;;;;;;7.17;91.29;98298.03;4960358;28;20050;-81
2022/12/25 05:59:29;;;;;;;6.53;3.30;;;;;;;7.13;91.49;98308.00;4962972;28;20042;-81
2022/12/25 06:01:55;;;;;;;4.88;3.15;;;;;;;7.12;91.98;98305.56;4962911;28;20374;-81
2022/12/25 06:04:20;;;;;;;7.25;3.08;;;;;;;7.12;92.00;98308.97;4962712;28;20043;-81
2022/12/25 06:06:45;;;;;;;5.40;3.10;;;;;;;7.11;91.91;98314.38;4963684;28;20034;-81
2022/12/25 06:09:12;;;;;;;3.83;3.00;;;;;;;7.13;91.70;98318.41;4962405;28;20070;-81
2022/12/25 06:11:38;;;;;;;5.88;3.30;;;;;;;7.04;90.32;98305.63;4962769;28;20106;-81
2022/12/25 06:14:04;;;;;;;5.47;3.05;;;;;;;7.11;90.16;98309.97;4963070;28;20488;-81
2022/12/25 06:16:30;;;;;;;3.10;2.80;;;;;;;7.15;90.26;98311.25;4963151;28;20062;-81
2022/12/25 06:18:55;;;;;;;4.35;3.03;;;;;;;7.13;90.04;98301.97;4962564;28;20636;-81
2022/12/25 06:21:21;;;;;;;6.10;3.60;;;;;;;7.10;90.41;98303.13;4945925;28;20093;-81
2022/12/25 06:23:47;;;;;;;5.28;3.10;;;;;;;7.08;90.64;98315.53;4964237;28;20046;-81
2022/12/25 06:26:17;;;;;;;3.88;3.10;;;;;;;7.07;90.56;98308.69;4963650;28;20363;-81
2022/12/25 06:28:43;;;;;;;5.00;2.88;;;;;;;7.07;90.51;98306.06;4962842;28;20494;-81
2022/12/25 06:31:12;;;;;;;6.80;3.65;;;;;;;6.98;90.14;98304.50;4962538;28;20424;-81
2022/12/25 06:33:38;;;;;;;3.88;3.10;;;;;;;7.03;90.23;98289.16;4962271;28;20047;-81
2022/12/25 06:36:07;;;;;;;10.50;3.40;;;;;;;6.96;89.85;98298.66;4962617;28;20033;-81
2022/12/25 06:38:34;;;;;;;4.00;3.15;;;;;;;7.03;90.39;98302.19;4961875;28;20049;-81
2022/12/25 06:41:09;;;;;;;4.72;3.45;;;;;;;7.07;90.35;98308.69;4961628;28;20886;-81
2022/12/25 06:43:36;;;;;;;5.57;3.00;;;;;;;7.13;90.38;98308.00;4966376;28;20038;-82
2022/12/25 06:46:08;;;;;;;4.70;3.25;;;;;;;7.10;90.09;98318.78;4962678;28;20046;-81
2022/12/25 06:48:36;;;;;;;5.88;3.60;;;;;;;7.07;90.81;98320.91;4965720;28;20035;-82
2022/12/25 06:51:03;;;;;;;6.70;3.50;;;;;;;7.11;90.61;98325.63;4961676;28;20523;-82
2022/12/25 06:53:29;;;;;;;4.35;3.03;;;;;;;7.14;91.01;98325.28;4954165;28;20391;-82
2022/12/25 06:56:06;;;;;;;6.13;3.30;;;;;;;7.15;91.27;98321.69;4964020;28;20058;-82
2022/12/25 06:58:32;;;;;;;6.35;3.40;;;;;;;7.11;91.68;98325.63;4963557;28;20046;-82
2022/12/25 07:00:58;;;;;;;6.15;3.47;;;;;;;7.19;91.84;98328.16;4963832;28;20450;-82
2022/12/25 07:03:28;;;;;;;5.57;3.58;;;;;;;7.21;91.88;98321.00;4963371;28;20127;-82
2022/12/25 07:05:54;;;;;;;4.40;3.33;;;;;;;7.33;91.41;98313.59;4964191;28;20031;-82
2022/12/25 07:08:19;;;;;;;8.07;3.08;;;;;;;7.42;90.60;98309.13;4964780;28;20434;-82
2022/12/25 07:10:45;;;;;;;5.93;3.40;;;;;;;7.49;90.47;98318.69;4964899;28;20060;-82
2022/12/25 07:13:10;;;;;;;4.80;3.47;;;;;;;7.48;89.76;98316.25;4964970;28;20064;-82
2022/12/25 07:15:36;;;;;;;5.05;3.70;;;;;;;7.47;89.84;98315.44;4964951;28;20157;-82
2022/12/25 07:18:01;;;;;;;9.90;6.20;;;;;;;7.52;89.98;98317.53;4966911;28;20037;-82
2022/12/25 07:20:28;;;;;;;6.85;4.85;;;;;;;7.58;90.24;98323.84;4965384;28;20050;-82
2022/12/25 07:22:54;;;;;;;9.30;4.53;;;;;;;7.63;89.79;98332.78;4963803;28;20561;-82
2022/12/25 07:25:19;;;;;;;8.45;4.53;;;;;;;7.69;89.79;98334.69;4962565;28;20038;-82
2022/12/25 07:27:45;;;;;;;7.45;4.28;;;;;;;7.75;89.72;98334.00;4964752;28;20054;-82
2022/12/25 07:30:11;;;;;;;5.85;3.88;;;;;;;7.66;89.57;98329.81;4964408;28;20066;-82
2022/12/25 07:32:37;;;;;;;5.22;3.30;;;;;;;7.73;89.84;98330.72;4966637;28;20042;-82
2022/12/25 07:35:02;;;;;;;4.90;3.50;;;;;;;7.73;90.04;98333.34;4910616;28;1108821;-82
2022/12/25 07:37:28;;;;;;;5.35;3.47;;;;;;;7.77;90.36;98336.44;4966837;28;20270;-82
2022/12/25 07:39:53;;;;;;;4.68;3.60;;;;;;;7.83;90.20;98329.69;4965939;28;20027;-82
2022/12/25 07:42:19;;;;;;;5.60;4.28;;;;;;;7.95;89.49;98328.28;4964408;28;20147;-82
2022/12/25 07:44:44;;;;;;;6.75;4.10;;;;;;;8.02;89.26;98308.28;4961450;28;20199;-82
2022/12/25 07:47:10;;;;;;;5.80;4.28;;;;;;;7.99;88.44;98308.66;4960112;28;20043;-81
2022/12/25 07:49:35;;;;;;;5.60;4.10;;;;;;;8.04;88.60;98298.50;4964978;28;20098;-81
2022/12/25 07:52:01;;;;;;;5.70;3.90;;;;;;;8.06;88.32;98301.72;4964637;28;20050;-81
2022/12/25 07:54:26;;;;;;;6.85;3.55;;;;;;;8.03;88.45;98284.59;4971491;28;20038;-83
2022/12/25 07:56:52;;;;;;;6.93;3.45;;;;;;;8.02;88.41;98292.63;4964649;28;20071;-82
2022/12/25 07:59:18;;;;;;;4.30;3.20;;;;;;;8.03;88.13;98294.25;4964052;28;20495;-82
2022/12/25 08:01:44;;;;;;;5.50;3.45;;;;;;;8.08;87.86;98297.13;4961107;28;20043;-82
2022/12/25 08:04:10;;;;;;;5.50;3.47;;;;;;;8.08;87.71;98306.78;4964225;28;20039;-82
2022/12/25 08:06:37;;;;;;;6.03;4.20;;;;;;;8.07;87.45;98305.16;4963152;28;20051;-82
2022/12/25 08:09:09;;;;;;;8.02;4.40;;;;;;;8.08;87.61;98312.81;4947954;28;20386;-82
2022/12/25 08:11:36;;;;;;;7.90;5.28;;;;;;;8.11;87.60;98307.25;4963339;28;20038;-81
2022/12/25 08:14:06;;;;;;;7.40;3.78;;;;;;;8.12;87.77;98308.84;4964310;28;20073;-82
2022/12/25 08:16:33;;;;;;;5.75;3.92;;;;;;;8.10;87.57;98316.06;4965110;28;20379;-82
2022/12/25 08:18:58;;;;;;;6.82;4.75;;;;;;;8.11;87.35;98304.63;4964478;28;20073;-82
2022/12/25 08:21:24;;;;;;;11.48;4.88;;;;;;;8.11;87.77;98302.00;4963702;28;20482;-82
2022/12/25 08:23:49;;;;;;;6.25;3.88;;;;;;;8.11;87.92;98296.78;4963489;28;20031;-82
2022/12/25 08:26:21;;;;;;;7.03;4.35;;;;;;;8.04;87.87;98291.47;4964753;28;20031;-82
2022/12/25 08:28:47;;;;;;;5.55;4.00;;;;;;;7.98;88.29;98286.97;4964133;28;20035;-82
2022/12/25 08:31:20;;;;;;;7.82;3.92;;;;;;;7.98;88.36;98280.94;4945765;28;20084;-82
2022/12/25 08:33:48;;;;;;;6.88;3.70;;;;;;;8.00;88.74;98282.34;4961106;28;20125;-82
2022/12/25 08:36:14;;;;;;;4.00;3.38;;;;;;;7.95;88.76;98292.53;4949497;28;20031;-81
2022/12/25 08:38:41;;;;;;;5.65;3.53;;;;;;;7.90;88.85;98288.81;4949884;28;20452;-82
2022/12/25 08:41:08;;;;;;;4.65;3.80;;;;;;;7.98;89.75;98286.16;4951454;28;20114;-82
2022/12/25 08:43:34;;;;;;;6.75;3.35;;;;;;;8.13;89.81;98284.34;4945563;28;20070;-82
2022/12/25 08:46:00;;;;;;;5.65;3.35;;;;;;;8.15;89.03;98287.59;4941936;28;20047;-81
2022/12/25 08:48:25;;;;;;;5.85;3.88;;;;;;;8.16;89.89;98294.47;4948162;28;20050;-82
2022/12/25 08:50:53;;;;;;;5.32;3.83;;;;;;;8.21;90.10;98299.13;4942895;28;20043;-82
2022/12/25 08:53:20;;;;;;;5.00;3.45;;;;;;;8.22;89.38;98295.53;4945301;28;20700;-82
2022/12/25 08:55:45;;;;;;;5.93;4.00;;;;;;;8.27;89.38;98307.06;4946836;28;20042;-82
2022/12/25 08:58:13;;;;;;;7.10;3.78;;;;;;;8.37;89.58;98292.94;4945363;28;20419;-82
2022/12/25 09:00:39;;;;;;;5.53;3.75;;;;;;;8.31;89.02;98286.59;4945182;28;20472;-82
2022/12/25 09:03:05;;;;;;;4.82;3.60;;;;;;;8.52;89.37;98288.53;4960675;28;20466;-82
2022/12/25 09:05:37;;;;;;;5.80;3.83;;;;;;;8.60;88.43;98295.47;4944878;28;20070;-83
2022/12/25 09:08:03;;;;;;;5.72;3.75;;;;;;;8.63;88.29;98308.97;4946193;28;20090;-82
2022/12/25 09:10:29;;;;;;;4.72;3.42;;;;;;;8.65;88.04;98299.16;4947238;28;20046;-81
2022/12/25 09:12:54;;;;;;;8.50;3.95;;;;;;;8.65;88.05;98296.53;4948843;28;20402;-82
2022/12/25 09:15:20;;;;;;;9.30;4.30;;;;;;;8.71;88.60;98297.63;4949410;28;20043;-82
2022/12/25 09:17:46;;;;;;;8.80;4.70;;;;;;;8.79;88.67;98308.78;4944492;28;20038;-82
2022/12/25 09:20:11;;;;;;;8.85;5.43;;;;;;;8.79;88.10;98300.94;4946585;28;20054;-81
2022/12/25 09:22:37;;;;;;;21.50;11.32;;;;;;;8.91;88.37;98305.69;4947169;28;20090;-82
2022/12/25 09:25:03;;;;;;;9.60;6.03;;;;;;;9.00;87.95;98299.38;4946074;28;20088;-81
2022/12/25 09:27:28;;;;;;;7.10;5.75;;;;;;;9.08;87.92;98291.41;4946441;28;20066;-82
2022/12/25 09:29:54;;;;;;;6.75;4.82;;;;;;;9.09;87.57;98295.63;4948537;28;20039;-81
2022/12/25 09:32:20;;;;;;;8.52;6.00;;;;;;;9.08;87.49;98301.88;4949384;28;20061;-82
2022/12/25 09:34:45;;;;;;;10.15;5.53;;;;;;;9.08;87.44;98305.28;4956852;28;20051;-82
2022/12/25 09:37:11;;;;;;;5.95;4.45;;;;;;;9.14;87.59;98311.59;4961196;28;20130;-82
2022/12/25 09:39:36;;;;;;;6.32;4.00;;;;;;;9.21;87.26;98309.06;4960913;28;20043;-82
2022/12/25 09:42:19;;;;;;;6.28;4.15;;;;;;;9.27;86.76;98298.66;4960923;28;20532;-82
2022/12/25 09:44:59;;;;;;;7.07;4.65;;;;;;;9.32;87.06;98292.84;4960499;28;20137;-82
2022/12/25 09:47:37;;;;;;;10.13;5.75;;;;;;;9.29;87.28;98273.09;4960791;28;20031;-82
2022/12/25 09:50:26;;;;;;;9.95;6.07;;;;;;;9.42;86.73;98285.50;4961591;28;20494;-82
2022/12/25 09:53:06;;;;;;;5.72;3.63;;;;;;;9.46;86.00;98262.38;4960669;28;20054;-81
2022/12/25 09:55:42;;;;;;;6.10;3.13;;;;;;;9.50;85.50;98255.78;4961867;28;20395;-81
2022/12/25 09:58:12;;;;;;;3.30;3.00;;;;;;;9.62;85.57;98254.25;4962477;28;20556;-82
2022/12/25 10:00:48;;;;;;;4.95;3.47;;;;;;;9.75;85.02;98249.13;4962055;28;20043;-81
2022/12/25 10:03:38;;;;;;;3.92;2.92;;;;;;;9.81;84.60;98247.53;4961525;28;20038;-82
2022/12/25 10:06:17;;;;;;;3.78;2.72;;;;;;;9.86;84.83;98232.88;4962559;28;20105;-82
2022/12/25 10:09:23;;;;;;;3.45;2.70;;;;;;;9.91;84.00;98217.41;4963551;28;20066;-82
2022/12/25 10:12:17;;;;;;;5.90;2.75;;;;;;;10.03;84.11;98206.38;4962487;28;20085;-81
2022/12/25 10:14:59;;;;;;;5.05;2.30;;;;;;;10.10;84.31;98192.31;4962587;28;20069;-81
2022/12/25 10:18:20;;;;;;;4.18;2.75;;;;;;;10.09;83.71;98161.06;4961740;28;20031;-82
2022/12/25 10:21:01;;;;;;;3.05;2.33;;;;;;;10.17;83.02;98161.69;4920341;28;20448;-82
2022/12/25 10:23:33;;;;;;;;;;;;;;;10.28;83.51;98170.84;4963502;28;20133;-82
2022/12/25 10:25:58;;;;;;;;;;;;;;;10.31;82.66;98180.13;4962509;28;20453;-82
2022/12/25 10:28:41;;;;;;;4.88;2.50;;;;;;;10.56;83.08;98177.81;4944679;28;20000;-82
2022/12/25 10:31:25;;;;;;;4.28;2.42;;;;;;;10.66;82.04;98183.47;4963942;28;20067;-82
2022/12/25 10:33:53;;;;;;;4.05;2.30;;;;;;;10.80;81.45;98169.41;4961855;28;20058;-82
2022/12/25 10:36:25;;;;;;;5.20;3.22;;;;;;;10.87;80.91;98172.84;4962522;28;20614;-82
2022/12/25 10:38:51;;;;;;;4.45;2.67;;;;;;;10.98;80.67;98179.31;4960490;28;20066;-82
2022/12/25 10:41:45;;;;;;;4.00;2.42;;;;;;;11.16;80.32;98189.22;4962582;28;20114;-82
2022/12/25 10:44:20;;;;;;;2.78;2.25;;;;;;;11.43;79.76;98206.59;4962792;28;20089;-81
2022/12/25 10:46:57;;;;;;;3.70;2.20;;;;;;;11.42;78.82;98212.88;4958842;28;20049;-81
2022/12/25 10:49:29;;;;;;;2.65;2.17;;;;;;;11.40;78.43;98212.28;4962803;28;20102;-82
2022/12/25 10:51:54;;;;;;;2.47;1.90;;;;;;;11.41;79.39;98216.50;4962410;28;20383;-82
2022/12/25 10:54:35;;;;;;;5.57;2.22;;;;;;;11.43;78.82;98213.66;4961828;28;20035;-82
2022/12/25 10:57:15;;;;;;;2.53;1.97;;;;;;;11.34;78.29;98215.69;4963344;28;20043;-82
2022/12/25 10:59:50;;;;;;;2.30;2.10;;;;;;;11.36;78.08;98220.75;4960773;28;20278;-82
2022/12/25 11:02:26;;;;;;;3.33;2.30;;;;;;;11.35;78.36;98206.81;4944165;28;20034;-82
2022/12/25 11:05:06;;;;;;;2.47;2.08;;;;;;;11.34;79.13;98196.50;4962831;28;20528;-82
2022/12/25 11:07:45;;;;;;;4.05;2.42;;;;;;;11.42;79.02;98198.94;4962432;28;20050;-81
2022/12/25 11:10:42;;;;;;;4.57;2.20;;;;;;;11.50;78.67;98203.97;4961991;28;20113;-82
2022/12/25 11:13:28;;;;;;;3.47;2.00;;;;;;;11.70;78.67;98190.84;4962416;28;20137;-82
2022/12/25 11:16:38;;;;;;;3.67;2.13;;;;;;;11.81;77.35;98182.34;4962114;28;20109;-81
2022/12/25 11:19:31;;;;;;;1.95;1.70;;;;;;;11.78;76.84;98165.16;4945787;28;20066;-81
2022/12/25 11:22:00;;;;;;;2.72;2.00;;;;;;;11.66;77.06;98160.72;4962627;28;20227;-82
2022/12/25 11:24:32;;;;;;;3.55;2.15;;;;;;;11.71;78.04;98155.66;4962391;28;20102;-81
2022/12/25 11:27:03;;;;;;;2.85;2.05;;;;;;;11.67;77.46;98155.25;4962770;28;20050;-82
2022/12/25 11:29:48;;;;;;;2.58;2.08;;;;;;;11.66;78.60;98143.13;4965972;28;20069;-82
2022/12/25 11:32:29;;;;;;;3.72;2.10;;;;;;;11.91;77.11;98153.00;4964598;28;20093;-82
2022/12/25 11:34:57;;;;;;;2.72;1.98;;;;;;;11.86;76.36;98153.63;4957175;28;20622;-82
2022/12/25 11:37:43;;;;;;;2.20;1.83;;;;;;;11.86;77.30;98144.94;4947583;28;20066;-82
2022/12/25 11:40:18;;;;;;;3.80;2.00;;;;;;;12.02;78.02;98137.41;4945483;28;20059;-82
2022/12/25 11:42:57;;;;;;;2.60;1.90;;;;;;;11.99;75.89;98137.81;4947022;28;20043;-82
2022/12/25 11:45:36;;;;;;;2.13;1.80;;;;;;;12.11;76.41;98134.53;4946533;28;20024;-81
2022/12/25 11:48:14;;;;;;;1.80;1.70;;;;;;;12.11;76.65;98131.91;4946085;28;20094;-82
2022/12/25 11:50:42;;;;;;;3.20;1.88;;;;;;;12.19;76.81;98131.69;4947699;28;20065;-82
2022/12/25 11:53:21;;;;;;;2.15;1.80;;;;;;;12.21;75.93;98129.66;4947645;28;20043;-82
2022/12/25 11:55:55;;;;;;;2.78;1.92;;;;;;;12.24;76.46;98109.03;4948975;28;20166;-82
2022/12/25 11:58:32;;;;;;;2.38;2.00;;;;;;;12.22;75.78;98104.97;4948752;28;20118;-82
2022/12/25 12:01:03;;;;;;;1.95;1.70;;;;;;;12.29;75.47;98111.00;4947337;28;20129;-82
2022/12/25 12:03:38;;;;;;;2.97;1.70;;;;;;;12.25;74.96;98104.56;4948613;28;20094;-82
2022/12/25 12:06:24;;;;;;;3.28;2.00;;;;;;;12.18;74.58;98090.66;4948552;28;20047;-82
2022/12/25 12:09:04;;;;;;;3.03;1.80;;;;;;;12.19;75.30;98090.44;4950242;28;20066;-82
2022/12/25 12:11:52;;;;;;;3.67;2.00;;;;;;;12.17;75.23;98065.34;4947405;28;20047;-81
2022/12/25 12:14:52;;;;;;;1.70;1.60;;;;;;;12.11;75.29;98076.69;4951176;28;20035;-82
2022/12/25 12:17:18;;;;;;;4.23;1.90;;;;;;;11.97;75.35;98084.66;4950516;28;20035;-81
2022/12/25 12:19:45;;;;;;;2.35;1.60;;;;;;;11.87;76.19;98081.66;4950557;28;20047;-82
2022/12/25 12:22:26;;;;;;;1.88;1.60;;;;;;;11.87;75.97;98072.97;4949736;28;20040;-82
2022/12/25 12:25:03;;;;;;;2.45;1.88;;;;;;;11.86;76.32;98047.69;4953544;28;20494;-82
2022/12/25 12:27:40;;;;;;;3.38;1.77;;;;;;;11.94;76.18;98063.25;4948455;28;20043;-82
2022/12/25 12:30:23;;;;;;;2.10;1.77;;;;;;;11.94;76.51;98061.44;4952629;28;20089;-82
2022/12/25 12:32:53;;;;;;;2.42;1.70;;;;;;;12.19;76.57;98058.06;4952497;28;20455;-82
2022/12/25 12:35:26;;;;;;;2.80;1.70;;;;;;;12.28;74.33;98051.53;4961095;28;20122;-82
2022/12/25 12:38:01;;;;;;;2.67;1.60;;;;;;;12.41;74.90;98050.66;4964397;28;20066;-82
2022/12/25 12:40:41;;;;;;;2.17;1.65;;;;;;;12.55;74.58;98052.19;4962814;28;20053;-81
2022/12/25 12:43:26;;;;;;;1.77;1.57;;;;;;;12.64;75.86;98039.56;4965605;28;20035;-82
2022/12/25 12:46:01;;;;;;;2.60;1.67;;;;;;;12.75;74.92;98047.56;4960615;28;20046;-82
2022/12/25 12:48:29;;;;;;;3.10;1.52;;;;;;;12.77;74.05;98040.25;4964037;28;20154;-82
2022/12/25 12:51:11;;;;;;;1.85;1.52;;;;;;;12.73;74.11;98030.41;4963606;28;20035;-82
2022/12/25 12:53:41;;;;;;;3.05;1.65;;;;;;;12.57;74.05;98023.84;4965137;28;20042;-82
2022/12/25 12:56:17;;;;;;;2.17;1.50;;;;;;;12.59;74.20;98021.78;4952554;28;20497;-82
2022/12/25 12:58:51;;;;;;;2.15;1.73;;;;;;;12.56;74.15;98025.66;4964374;28;20077;-82
2022/12/25 13:01:32;;;;;;;1.92;1.70;;;;;;;12.56;74.54;98023.03;4964695;28;20057;-82
2022/12/25 13:04:22;;;;;;;1.90;1.70;;;;;;;12.56;74.71;98030.94;4963790;28;20513;-82
2022/12/25 13:07:22;;;;;;;1.90;1.58;;;;;;;12.58;74.07;98041.22;4949484;28;20035;-82
2022/12/25 13:10:33;;;;;;;2.85;1.70;;;;;;;12.57;74.52;98040.41;4963534;28;20043;-82
2022/12/25 13:13:08;;;;;;;2.58;1.92;;;;;;;12.63;75.48;98043.22;4959862;28;20073;-82
2022/12/25 13:15:35;;;;;;;2.92;1.95;;;;;;;12.66;75.00;98033.09;4964045;28;20035;-81
2022/12/25 13:18:12;;;;;;;2.28;1.80;;;;;;;12.62;74.96;98034.53;4963812;28;20042;-82
2022/12/25 13:20:56;;;;;;;2.50;1.60;;;;;;;12.62;75.24;98052.16;4964630;28;20135;-81
2022/12/25 13:23:26;;;;;;;2.35;1.83;;;;;;;12.50;74.46;98042.31;4961949;28;20826;-82
2022/12/25 13:26:24;;;;;;;2.05;1.80;;;;;;;12.49;76.16;98037.25;4963076;28;20039;-82
2022/12/25 13:28:49;;;;;;;1.95;1.70;;;;;;;12.45;76.21;98031.59;4960700;28;20078;-81
2022/12/25 13:31:21;;;;;;;1.90;1.50;;;;;;;12.47;75.98;98019.03;4963454;28;20065;-81
2022/12/25 13:34:05;;;;;;;1.88;1.60;;;;;;;12.46;75.59;98022.69;4961049;28;20046;-81
2022/12/25 13:36:38;;;;;;;1.80;1.70;;;;;;;12.45;75.79;98005.31;4963923;28;20035;-81
2022/12/25 13:39:13;;;;;;;2.22;1.60;;;;;;;12.46;75.79;98014.00;4962709;28;20073;-82
2022/12/25 13:42:05;;;;;;;3.10;1.60;;;;;;;12.48;75.56;98015.41;4963496;28;20045;-81
2022/12/25 13:44:52;;;;;;;3.55;1.50;;;;;;;12.45;75.85;98010.56;4963393;28;20047;-82
2022/12/25 13:47:37;;;;;;;1.88;1.42;;;;;;;12.43;75.93;98002.09;4961283;28;20046;-82